Time;durP1;ratioP1;P1;durP2;ratioP2;P2;SDS_P1;SDS_P2;PMS_P1;PMS_P2;Temp;Humidity;BMP_temperature;BMP_pressure;BME280_temperature;BME280_humidity;BME280_pressure;Samples;Min_cycle;Max_cycle;Signal;HPM_P1;HPM_P2
2022/03/07 00:00:56;;;;;;;12.20;9.07;;;-0.60;99.90;;;;;;5079900;28;20458;-62
2022/03/07 00:03:27;;;;;;;10.23;8.23;;;-0.50;99.90;;;;;;5078710;28;20469;-62
2022/03/07 00:05:57;;;;;;;10.93;8.53;;;-0.40;99.90;;;;;;5079781;28;20894;-63
2022/03/07 00:08:27;;;;;;;10.57;8.83;;;-0.40;99.90;;;;;;5078927;28;20870;-63
2022/03/07 00:10:59;;;;;;;10.23;8.70;;;-0.30;99.90;;;;;;5079246;28;20898;-63
2022/03/07 00:13:42;;;;;;;9.20;8.20;;;-0.30;99.90;;;;;;5078485;28;20458;-63
2022/03/07 00:16:10;;;;;;;9.23;8.10;;;-0.40;99.90;;;;;;5079591;28;20467;-63
2022/03/07 00:18:37;;;;;;;11.33;9.87;;;-0.30;99.90;;;;;;5079247;28;20466;-63
2022/03/07 00:21:15;;;;;;;11.27;9.10;;;-0.40;99.90;;;;;;5095205;28;20462;-63
2022/03/07 00:23:49;;;;;;;11.30;8.83;;;-0.30;99.90;;;;;;5092237;28;20465;-63
2022/03/07 00:26:23;;;;;;;10.27;9.17;;;-0.30;99.90;;;;;;5079538;28;20555;-63
2022/03/07 00:28:56;;;;;;;11.00;8.80;;;-0.30;99.90;;;;;;5079342;28;20888;-63
2022/03/07 00:31:27;;;;;;;10.00;8.97;;;-0.20;99.90;;;;;;5078922;28;20462;-63
2022/03/07 00:33:59;;;;;;;8.70;7.80;;;-0.20;99.90;;;;;;5079190;28;20957;-63
2022/03/07 00:36:27;;;;;;;10.90;8.73;;;-0.20;99.90;;;;;;5079433;28;20492;-63
2022/03/07 00:38:58;;;;;;;13.50;8.90;;;-0.20;99.90;;;;;;5078647;28;20463;-63
2022/03/07 00:41:25;;;;;;;10.73;8.70;;;-0.20;99.90;;;;;;5078969;28;20469;-63
2022/03/07 00:44:05;;;;;;;9.20;8.30;;;-0.20;99.90;;;;;;5077851;28;20436;-63
2022/03/07 00:46:35;;;;;;;9.57;8.33;;;-0.10;99.90;;;;;;5075854;28;20471;-61
2022/03/07 00:49:02;;;;;;;11.50;9.10;;;-0.10;99.90;;;;;;5069760;28;20921;-63
2022/03/07 00:51:30;;;;;;;15.60;9.60;;;-0.10;99.90;;;;;;5077354;28;20556;-63
2022/03/07 00:54:01;;;;;;;10.00;8.77;;;0.00;99.90;;;;;;5077314;28;20964;-63
2022/03/07 00:56:30;;;;;;;10.43;9.20;;;0.00;99.90;;;;;;5077454;28;20945;-63
2022/03/07 00:58:59;;;;;;;11.07;8.40;;;0.00;99.90;;;;;;5078058;28;20466;-63
2022/03/07 01:01:34;;;;;;;9.50;8.43;;;0.00;99.90;;;;;;5078438;28;20461;-63
2022/03/07 01:04:04;;;;;;;10.50;8.43;;;0.00;99.90;;;;;;5078444;28;20476;-62
2022/03/07 01:06:31;;;;;;;9.97;8.30;;;0.10;99.90;;;;;;5077665;28;20462;-63
2022/03/07 01:09:03;;;;;;;8.97;8.07;;;0.10;99.90;;;;;;5078552;28;20549;-62
2022/03/07 01:11:30;;;;;;;8.50;7.70;;;0.10;99.90;;;;;;5078271;28;20531;-63
2022/03/07 01:14:11;;;;;;;9.70;8.20;;;0.20;99.90;;;;;;5078135;28;20465;-63
2022/03/07 01:16:38;;;;;;;9.03;8.03;;;0.20;99.90;;;;;;5078783;28;20494;-63
2022/03/07 01:19:16;;;;;;;10.47;8.10;;;0.20;99.90;;;;;;5078126;28;20471;-63
2022/03/07 01:21:43;;;;;;;11.20;8.57;;;0.30;99.90;;;;;;5075226;28;20949;-63
2022/03/07 01:24:10;;;;;;;11.47;8.50;;;0.30;99.90;;;;;;5078026;28;20461;-63
2022/03/07 01:26:42;;;;;;;10.67;8.73;;;0.30;99.90;;;;;;5077830;28;20465;-61
2022/03/07 01:29:10;;;;;;;11.47;8.10;;;0.30;99.90;;;;;;5078471;28;20465;-61
2022/03/07 01:31:39;;;;;;;8.67;7.67;;;0.30;99.90;;;;;;5077177;28;20535;-63
2022/03/07 01:34:09;;;;;;;9.60;7.60;;;0.20;99.90;;;;;;5078280;28;20891;-63
2022/03/07 01:36:36;;;;;;;8.13;7.30;;;0.20;99.90;;;;;;5077774;28;20490;-63
2022/03/07 01:39:06;;;;;;;10.33;8.07;;;0.30;99.90;;;;;;5078282;28;20469;-63
2022/03/07 01:41:35;;;;;;;9.57;7.20;;;0.40;99.90;;;;;;5077028;28;20966;-63
2022/03/07 01:44:02;;;;;;;9.20;7.50;;;0.40;99.90;;;;;;5077887;28;20531;-63
2022/03/07 01:46:37;;;;;;;9.07;7.37;;;0.40;99.90;;;;;;5077677;28;20458;-61
2022/03/07 01:49:04;;;;;;;7.83;6.63;;;0.50;99.90;;;;;;5078282;28;20466;-63
2022/03/07 01:51:38;;;;;;;10.50;7.40;;;0.50;99.90;;;;;;5076598;28;20469;-63
2022/03/07 01:54:07;;;;;;;8.40;7.23;;;0.50;99.90;;;;;;5077156;28;20810;-63
2022/03/07 01:56:37;;;;;;;7.57;6.87;;;0.50;99.90;;;;;;5076901;28;20494;-63
2022/03/07 01:59:11;;;;;;;8.10;6.07;;;0.60;99.90;;;;;;5078039;28;20565;-63
2022/03/07 02:01:45;;;;;;;7.47;6.20;;;0.60;99.90;;;;;;5076728;28;20886;-62
2022/03/07 02:04:17;;;;;;;7.83;5.50;;;0.60;99.90;;;;;;5077221;28;20515;-63
2022/03/07 02:06:48;;;;;;;8.80;4.97;;;0.60;99.90;;;;;;5077412;28;20799;-62
2022/03/07 02:09:17;;;;;;;6.87;6.20;;;0.70;99.90;;;;;;5077820;28;20466;-63
2022/03/07 02:11:44;;;;;;;7.77;6.53;;;0.60;99.90;;;;;;5076942;28;20478;-63
2022/03/07 02:14:12;;;;;;;6.17;5.60;;;0.60;99.90;;;;;;5076986;28;20474;-63
2022/03/07 02:16:41;;;;;;;9.97;5.90;;;0.60;99.90;;;;;;5077508;28;20928;-63
2022/03/07 02:19:11;;;;;;;7.77;5.53;;;0.60;99.90;;;;;;5076902;28;20469;-63
2022/03/07 02:21:44;;;;;;;7.67;6.60;;;0.60;99.90;;;;;;5077106;28;20456;-63
2022/03/07 02:24:15;;;;;;;7.60;5.10;;;0.50;99.90;;;;;;5076857;28;20846;-62
2022/03/07 02:26:56;;;;;;;6.83;5.63;;;0.60;99.90;;;;;;5077079;28;21117;-63
2022/03/07 02:29:31;;;;;;;6.13;5.03;;;0.60;99.90;;;;;;5077151;28;20530;-63
2022/03/07 02:32:08;;;;;;;6.60;4.50;;;0.70;99.90;;;;;;5076385;28;20462;-63
2022/03/07 02:34:35;;;;;;;8.30;5.70;;;0.70;99.90;;;;;;5076559;28;20927;-63
2022/03/07 02:37:02;;;;;;;7.40;5.27;;;0.80;99.90;;;;;;5077258;28;20950;-63
2022/03/07 02:39:35;;;;;;;6.10;5.50;;;0.70;99.90;;;;;;5076265;28;20521;-63
2022/03/07 02:48:13;;;;;;;5.50;5.00;;;0.70;99.90;;;;;;5073288;28;20437;-61
2022/03/07 02:50:43;;;;;;;6.43;5.63;;;0.70;99.90;;;;;;5076612;28;20466;-63
2022/03/07 02:53:15;;;;;;;7.37;4.93;;;0.60;99.90;;;;;;5076787;28;20463;-63
2022/03/07 02:55:47;;;;;;;5.57;5.07;;;0.60;99.90;;;;;;5076324;28;20492;-63
2022/03/07 02:58:14;;;;;;;6.80;5.93;;;0.70;99.90;;;;;;5076675;28;20706;-63
2022/03/07 03:00:41;;;;;;;7.33;5.10;;;0.60;99.90;;;;;;5076920;28;20467;-62
2022/03/07 03:03:08;;;;;;;7.67;6.40;;;0.60;99.90;;;;;;5076510;28;20444;-62
2022/03/07 03:05:35;;;;;;;6.27;5.67;;;0.50;99.90;;;;;;5076221;28;20740;-63
2022/03/07 03:08:10;;;;;;;7.40;6.00;;;0.50;99.90;;;;;;5080746;28;20466;-63
2022/03/07 03:10:40;;;;;;;6.83;6.13;;;0.50;99.90;;;;;;5080552;28;20465;-63
2022/03/07 03:13:09;;;;;;;7.87;5.87;;;0.50;99.90;;;;;;5080398;28;20515;-63
2022/03/07 03:15:38;;;;;;;6.67;6.07;;;0.50;99.90;;;;;;5080030;28;20491;-63
2022/03/07 03:18:08;;;;;;;5.83;5.23;;;0.40;99.90;;;;;;5080452;28;20973;-61
2022/03/07 03:20:58;;;;;;;7.00;4.80;;;0.50;99.90;;;;;;5085763;28;20485;-63
2022/03/07 03:23:27;;;;;;;6.00;5.40;;;0.60;99.90;;;;;;5081017;28;20461;-61
2022/03/07 03:25:57;;;;;;;6.40;5.43;;;0.60;99.90;;;;;;5080049;28;20460;-63
2022/03/07 03:28:27;;;;;;;5.80;5.20;;;0.60;99.90;;;;;;5080170;28;20469;-63
2022/03/07 03:30:57;;;;;;;5.70;4.77;;;0.60;99.90;;;;;;5080180;28;20466;-63
2022/03/07 03:33:29;;;;;;;5.47;4.97;;;0.70;99.90;;;;;;5080176;28;20473;-63
2022/03/07 03:35:56;;;;;;;5.33;4.83;;;0.70;99.90;;;;;;5080355;28;20778;-64
2022/03/07 03:38:27;;;;;;;6.30;5.07;;;0.70;99.90;;;;;;5079574;28;20471;-63
2022/03/07 03:40:54;;;;;;;4.40;4.03;;;0.70;99.90;;;;;;5079991;28;20519;-63
2022/03/07 03:43:21;;;;;;;6.87;4.67;;;0.70;99.90;;;;;;5080610;28;20469;-63
2022/03/07 03:45:50;;;;;;;4.60;4.20;;;0.70;99.90;;;;;;5079037;28;20461;-63
2022/03/07 03:48:17;;;;;;;4.73;3.97;;;0.70;99.90;;;;;;5079544;28;20493;-62
2022/03/07 03:50:50;;;;;;;4.87;4.37;;;0.70;99.90;;;;;;5080037;28;20522;-63
2022/03/07 03:53:17;;;;;;;6.93;4.27;;;0.70;99.90;;;;;;5080007;28;20897;-62
2022/03/07 03:55:47;;;;;;;4.77;4.37;;;0.70;99.90;;;;;;5079811;28;20917;-62
2022/03/07 03:58:14;;;;;;;5.00;4.50;;;0.70;99.90;;;;;;5079534;28;20461;-60
2022/03/07 04:00:44;;;;;;;5.23;4.73;;;0.70;99.90;;;;;;5079942;28;20514;-63
2022/03/07 04:03:20;;;;;;;5.40;4.40;;;0.70;99.90;;;;;;5079400;28;20519;-63
2022/03/07 04:08:43;;;;;;;6.30;4.80;;;0.70;99.90;;;;;;5079162;28;20902;-63
2022/03/07 04:11:12;;;;;;;4.73;4.33;;;0.70;99.90;;;;;;5067957;28;20462;-63
2022/03/07 04:13:44;;;;;;;5.20;4.40;;;0.70;99.90;;;;;;5078885;28;20829;-63
2022/03/07 04:16:15;;;;;;;6.40;5.80;;;0.60;99.90;;;;;;5079132;28;20492;-61
2022/03/07 04:18:47;;;;;;;9.23;5.83;;;0.60;99.90;;;;;;5078545;28;20516;-62
2022/03/07 04:21:15;;;;;;;5.27;4.77;;;0.60;99.90;;;;;;5096352;28;20540;-61
2022/03/07 04:23:42;;;;;;;6.50;5.90;;;0.50;99.90;;;;;;5084588;28;20971;-62
2022/03/07 04:26:24;;;;;;;6.00;5.37;;;0.60;99.90;;;;;;5078907;28;20804;-63
2022/03/07 04:28:51;;;;;;;6.03;5.17;;;0.50;99.90;;;;;;5076291;28;20473;-63
2022/03/07 04:31:36;;;;;;;7.50;4.90;;;0.40;99.90;;;;;;5079007;28;20464;-63
2022/03/07 04:34:06;;;;;;;5.27;4.87;;;0.50;99.90;;;;;;5078637;28;20874;-63
2022/03/07 04:36:44;;;;;;;7.20;5.47;;;0.50;99.90;;;;;;5079522;28;20489;-63
2022/03/07 04:39:16;;;;;;;7.70;5.07;;;0.40;99.90;;;;;;5078782;28;20884;-61
2022/03/07 04:41:44;;;;;;;5.40;4.90;;;0.40;99.90;;;;;;5078498;28;20547;-63
2022/03/07 04:44:12;;;;;;;5.50;5.00;;;0.40;99.90;;;;;;5078918;28;20749;-63
2022/03/07 04:46:42;;;;;;;6.40;5.43;;;0.40;99.90;;;;;;5079102;28;20461;-63
2022/03/07 04:49:12;;;;;;;5.53;5.00;;;0.30;99.90;;;;;;5078619;28;20466;-63
2022/03/07 04:51:45;;;;;;;7.77;4.47;;;0.20;99.90;;;;;;5078851;28;20538;-63
2022/03/07 04:54:15;;;;;;;5.90;5.30;;;0.20;99.90;;;;;;5078290;28;20519;-63
2022/03/07 04:56:46;;;;;;;10.53;5.53;;;0.10;99.90;;;;;;5078449;28;20490;-63
2022/03/07 04:59:24;;;;;;;5.60;5.10;;;0.10;99.90;;;;;;5078545;28;20526;-63
2022/03/07 05:01:51;;;;;;;4.87;4.37;;;0.10;99.90;;;;;;5078594;28;20488;-63
2022/03/07 05:04:29;;;;;;;6.27;4.60;;;0.10;99.90;;;;;;5078122;28;20466;-63
2022/03/07 05:06:59;;;;;;;4.33;4.00;;;0.10;99.90;;;;;;5079049;28;20440;-63
2022/03/07 05:09:26;;;;;;;5.57;4.20;;;0.00;99.90;;;;;;5077958;28;20465;-63
2022/03/07 05:11:53;;;;;;;4.07;3.67;;;0.00;99.90;;;;;;5078377;28;20465;-63
2022/03/07 05:14:20;;;;;;;4.50;3.87;;;0.00;99.90;;;;;;5077947;28;20769;-63
2022/03/07 05:16:47;;;;;;;5.03;3.97;;;-0.10;99.90;;;;;;5076665;28;20789;-63
2022/03/07 05:19:14;;;;;;;6.17;4.83;;;-0.10;99.90;;;;;;5077858;28;20506;-63
2022/03/07 05:21:45;;;;;;;4.57;4.17;;;-0.10;99.90;;;;;;5096971;28;20964;-63
2022/03/07 05:27:02;;;;;;;7.33;4.07;;;-0.20;99.90;;;;;;5075111;28;20446;-63
2022/03/07 05:29:32;;;;;;;8.27;4.03;;;-0.30;99.90;;;;;;5077801;28;20450;-63
2022/03/07 05:32:02;;;;;;;4.13;3.73;;;-0.30;99.90;;;;;;5077778;28;20457;-62
2022/03/07 05:34:32;;;;;;;5.30;4.80;;;-0.40;99.90;;;;;;5077610;28;20461;-63
2022/03/07 05:37:06;;;;;;;5.70;5.20;;;-0.40;99.90;;;;;;5076886;28;20603;-63
2022/03/07 05:39:45;;;;;;;6.23;5.33;;;-0.50;99.90;;;;;;5076335;28;20519;-63
2022/03/07 05:42:12;;;;;;;6.97;5.37;;;-0.60;99.90;;;;;;5078303;28;20477;-63
2022/03/07 05:44:53;;;;;;;6.43;5.33;;;-0.70;99.90;;;;;;5077910;28;20461;-62
2022/03/07 05:47:20;;;;;;;6.77;4.90;;;-0.80;99.90;;;;;;5076196;28;20461;-63
2022/03/07 05:49:53;;;;;;;6.30;4.60;;;-0.90;99.90;;;;;;5077063;28;20885;-63
2022/03/07 05:52:23;;;;;;;5.33;4.27;;;-0.90;99.90;;;;;;5077317;28;20461;-63
2022/03/07 05:54:55;;;;;;;5.63;5.13;;;-1.00;99.90;;;;;;5077824;28;20515;-63
2022/03/07 05:57:24;;;;;;;5.10;4.40;;;-1.00;99.90;;;;;;5076506;28;20489;-63
2022/03/07 05:59:53;;;;;;;5.27;4.83;;;-1.00;99.90;;;;;;5077752;28;20542;-63
2022/03/07 06:02:23;;;;;;;5.40;4.90;;;-1.10;99.90;;;;;;5076729;28;20461;-63
2022/03/07 06:04:50;;;;;;;6.50;4.83;;;-1.00;99.90;;;;;;5077594;28;20472;-62
2022/03/07 06:07:20;;;;;;;7.90;5.17;;;-1.10;99.90;;;;;;5076562;28;20524;-62
2022/03/07 06:09:50;;;;;;;8.60;5.43;;;-1.10;99.90;;;;;;5077279;28;20531;-63
2022/03/07 06:12:17;;;;;;;5.47;4.97;;;-1.10;99.90;;;;;;5077038;28;20462;-63
2022/03/07 06:14:56;;;;;;;5.13;4.73;;;-1.10;99.90;;;;;;5076929;28;20465;-63
2022/03/07 06:17:27;;;;;;;6.00;5.03;;;-1.00;99.90;;;;;;5077044;28;20538;-64
2022/03/07 06:19:54;;;;;;;7.77;6.97;;;-1.10;99.90;;;;;;5076678;28;20807;-63
2022/03/07 06:22:25;;;;;;;9.57;5.70;;;-1.10;99.90;;;;;;5077179;28;20468;-60
2022/03/07 06:24:55;;;;;;;6.73;5.60;;;-1.10;99.90;;;;;;5077336;28;20457;-61
2022/03/07 06:27:26;;;;;;;12.60;5.97;;;-1.00;99.90;;;;;;5077128;28;20457;-62
2022/03/07 06:30:22;;;;;;;5.90;5.07;;;-0.90;99.90;;;;;;5071703;28;20469;-62
2022/03/07 06:32:53;;;;;;;5.60;5.00;;;-0.80;99.90;;;;;;5071824;28;20497;-59
2022/03/07 06:35:43;;;;;;;6.70;5.20;;;-0.80;99.90;;;;;;5076513;28;20797;-62
2022/03/07 06:38:19;;;;;;;5.57;5.00;;;-0.70;99.90;;;;;;5071406;28;20517;-62
2022/03/07 06:40:48;;;;;;;9.77;5.70;;;-0.70;99.90;;;;;;5075798;28;20560;-62
2022/03/07 06:43:24;;;;;;;6.70;5.40;;;-0.70;99.90;;;;;;5075889;28;20464;-58
2022/03/07 06:45:53;;;;;;;17.60;5.77;;;-0.70;99.90;;;;;;5076212;28;20514;-62
2022/03/07 06:48:20;;;;;;;7.23;5.30;;;-0.60;99.90;;;;;;5075313;28;20932;-61
2022/03/07 06:50:51;;;;;;;5.90;5.30;;;-0.60;99.90;;;;;;5074125;28;20461;-62
2022/03/07 06:53:18;;;;;;;7.43;5.57;;;-0.60;99.90;;;;;;5074452;28;20751;-62
2022/03/07 06:55:47;;;;;;;9.93;5.27;;;-0.50;99.90;;;;;;5074540;28;20803;-62
2022/03/07 06:58:14;;;;;;;5.70;5.20;;;-0.50;99.90;;;;;;5075554;28;20773;-61
2022/03/07 07:00:43;;;;;;;6.10;5.50;;;-0.40;99.90;;;;;;5074676;28;20465;-63
2022/03/07 07:03:12;;;;;;;5.93;5.00;;;-0.30;99.90;;;;;;5075215;28;20457;-61
2022/03/07 07:05:47;;;;;;;12.00;6.60;;;-0.20;99.90;;;;;;5074207;28;20465;-62
2022/03/07 07:08:24;;;;;;;6.53;5.30;;;-0.10;99.90;;;;;;5071913;28;20456;-62
2022/03/07 07:10:56;;;;;;;6.00;5.50;;;0.00;99.90;;;;;;5072455;28;20493;-62
2022/03/07 07:13:33;;;;;;;6.43;4.83;;;0.20;99.90;;;;;;5074907;28;20467;-62
2022/03/07 07:16:00;;;;;;;6.00;5.40;;;0.40;99.90;;;;;;5073526;28;20465;-62
2022/03/07 07:18:29;;;;;;;7.70;6.13;;;0.70;99.90;;;;;;5076111;28;20555;-62
2022/03/07 07:21:01;;;;;;;5.73;5.10;;;0.90;99.90;;;;;;5078892;28;20493;-62
2022/03/07 07:23:37;;;;;;;7.87;5.30;;;1.20;99.90;;;;;;5076879;28;20467;-62
2022/03/07 07:26:07;;;;;;;6.50;5.10;;;1.40;99.90;;;;;;5076183;28;20906;-62
2022/03/07 07:28:41;;;;;;;5.87;5.03;;;1.70;99.90;;;;;;5076590;28;20466;-62
2022/03/07 07:31:08;;;;;;;5.03;4.47;;;1.90;99.90;;;;;;5075903;28;20520;-62
2022/03/07 07:33:35;;;;;;;6.23;5.60;;;2.10;99.90;;;;;;5076279;28;20464;-62
2022/03/07 07:36:06;;;;;;;6.50;5.30;;;2.40;99.90;;;;;;5075627;28;20468;-62
2022/03/07 07:38:36;;;;;;;5.67;5.13;;;2.60;99.90;;;;;;5075656;28;21021;-62
2022/03/07 07:41:10;;;;;;;6.10;5.50;;;2.80;99.90;;;;;;5075394;28;20457;-61
2022/03/07 07:43:40;;;;;;;5.43;4.93;;;3.10;99.90;;;;;;5074724;28;20773;-60
2022/03/07 07:46:07;;;;;;;6.17;4.83;;;3.30;99.90;;;;;;5073959;28;20824;-62
2022/03/07 07:48:34;;;;;;;5.40;4.90;;;3.50;99.90;;;;;;5074906;28;20452;-61
2022/03/07 07:51:02;;;;;;;5.70;5.10;;;3.80;99.90;;;;;;5074290;28;20897;-59
2022/03/07 07:53:32;;;;;;;4.83;4.43;;;4.00;99.90;;;;;;5074981;28;20469;-60
2022/03/07 07:56:01;;;;;;;4.97;4.47;;;4.10;99.90;;;;;;5077338;28;20457;-59
2022/03/07 07:58:34;;;;;;;5.47;4.67;;;4.30;99.90;;;;;;5077972;28;20489;-61
2022/03/07 08:01:04;;;;;;;6.60;5.60;;;4.30;99.90;;;;;;5078814;28;20461;-58
2022/03/07 08:03:31;;;;;;;4.87;4.47;;;4.60;99.90;;;;;;5077302;28;20465;-57
2022/03/07 08:06:02;;;;;;;4.47;3.67;;;4.50;99.90;;;;;;5077330;28;20462;-60
2022/03/07 08:08:31;;;;;;;5.27;4.77;;;4.30;99.90;;;;;;5077449;28;20457;-60
2022/03/07 08:11:02;;;;;;;5.93;5.37;;;4.40;99.90;;;;;;5074701;28;20467;-60
2022/03/07 08:13:40;;;;;;;4.77;4.33;;;4.50;99.90;;;;;;5075191;28;20466;-60
2022/03/07 08:16:07;;;;;;;5.07;4.43;;;4.50;99.90;;;;;;5074460;28;20468;-60
2022/03/07 08:18:36;;;;;;;4.60;4.20;;;4.30;99.90;;;;;;5074149;28;20539;-60
2022/03/07 08:21:06;;;;;;;5.93;4.07;;;4.30;99.90;;;;;;5077526;28;20956;-61
2022/03/07 08:23:41;;;;;;;5.40;4.47;;;4.30;99.90;;;;;;5076343;28;20462;-61
2022/03/07 08:26:11;;;;;;;5.07;4.20;;;4.40;99.90;;;;;;5075732;28;20882;-60
2022/03/07 08:28:40;;;;;;;5.03;4.00;;;4.40;99.90;;;;;;5077004;28;20461;-61
2022/03/07 08:31:13;;;;;;;5.40;4.50;;;4.40;99.90;;;;;;5076869;28;20465;-61
2022/03/07 08:33:40;;;;;;;6.57;4.87;;;4.70;99.90;;;;;;5076767;28;20473;-60
2022/03/07 08:36:07;;;;;;;4.80;4.40;;;5.00;99.90;;;;;;5077472;28;20461;-59
2022/03/07 08:38:34;;;;;;;4.47;4.07;;;5.10;99.90;;;;;;5077351;28;20496;-61
2022/03/07 08:41:04;;;;;;;4.17;3.77;;;5.10;99.90;;;;;;5076951;28;21179;-61
2022/03/07 08:43:34;;;;;;;4.70;4.30;;;4.90;99.90;;;;;;5078032;28;20462;-61
2022/03/07 08:46:03;;;;;;;4.27;3.87;;;5.10;99.90;;;;;;5074824;28;20469;-61
2022/03/07 08:48:33;;;;;;;4.77;4.37;;;5.00;99.90;;;;;;5076404;28;20828;-60
2022/03/07 08:50:59;;;;;;;4.33;3.93;;;5.10;99.90;;;;;;5073786;28;20477;-60
2022/03/07 08:53:29;;;;;;;5.37;4.40;;;5.10;99.90;;;;;;5074078;28;20461;-59
2022/03/07 08:55:59;;;;;;;4.00;3.70;;;5.30;99.90;;;;;;5073356;28;20465;-61
2022/03/07 08:58:33;;;;;;;5.97;4.77;;;5.70;99.90;;;;;;5076629;28;20500;-58
2022/03/07 09:01:01;;;;;;;4.80;4.40;;;5.60;99.90;;;;;;5075138;28;20898;-60
2022/03/07 09:03:34;;;;;;;5.50;4.40;;;5.60;99.90;;;;;;5076494;28;20458;-59
2022/03/07 09:06:04;;;;;;;5.60;4.60;;;5.80;99.90;;;;;;5068806;28;20944;-58
2022/03/07 09:08:37;;;;;;;5.00;4.60;;;5.90;99.90;;;;;;5074336;28;20467;-60
2022/03/07 09:11:05;;;;;;;6.80;4.53;;;6.10;99.90;;;;;;5075504;28;20473;-61
2022/03/07 09:13:35;;;;;;;5.20;4.20;;;6.40;99.90;;;;;;5076297;28;20468;-58
2022/03/07 09:16:10;;;;;;;4.63;4.17;;;6.60;99.90;;;;;;5076281;28;20882;-58
2022/03/07 09:18:44;;;;;;;4.67;4.27;;;6.50;99.90;;;;;;5074376;28;20487;-60
2022/03/07 09:21:11;;;;;;;4.50;4.10;;;6.70;99.90;;;;;;5080318;28;20493;-60
2022/03/07 09:23:39;;;;;;;4.63;4.10;;;6.90;99.90;;;;;;5077558;28;20531;-59
2022/03/07 09:26:09;;;;;;;5.10;3.80;;;6.90;99.90;;;;;;5076907;28;20469;-61
2022/03/07 09:28:37;;;;;;;4.70;4.10;;;6.90;99.90;;;;;;5077838;28;20882;-60
2022/03/07 09:31:04;;;;;;;4.80;4.20;;;7.00;99.90;;;;;;5069333;28;20465;-59
2022/03/07 09:33:34;;;;;;;7.60;4.00;;;7.10;99.90;;;;;;5077204;28;20882;-58
2022/03/07 09:36:03;;;;;;;4.17;3.77;;;7.40;99.90;;;;;;5076794;28;20469;-58
2022/03/07 09:38:31;;;;;;;4.87;3.80;;;7.50;99.90;;;;;;5077003;28;20547;-59
2022/03/07 09:41:01;;;;;;;4.00;3.70;;;7.60;99.90;;;;;;5077029;28;20874;-56
2022/03/07 09:43:30;;;;;;;4.40;4.00;;;7.60;99.90;;;;;;5075267;28;20461;-57
2022/03/07 09:46:00;;;;;;;4.47;4.03;;;7.50;99.90;;;;;;5076066;28;20460;-58
2022/03/07 09:48:29;;;;;;;4.20;3.90;;;7.50;99.90;;;;;;5076214;28;20883;-58
2022/03/07 09:51:00;;;;;;;4.27;3.97;;;7.60;99.90;;;;;;5076785;28;20806;-60
2022/03/07 09:53:34;;;;;;;4.30;4.00;;;7.70;99.90;;;;;;5070920;28;20488;-59
2022/03/07 09:56:03;;;;;;;4.50;4.20;;;7.90;99.90;;;;;;5076377;28;20479;-60
2022/03/07 09:58:33;;;;;;;5.53;4.20;;;7.80;99.90;;;;;;5076197;28;20489;-61
2022/03/07 10:01:13;;;;;;;3.67;3.37;;;7.90;99.90;;;;;;5077041;28;20462;-60
2022/03/07 10:03:40;;;;;;;4.30;3.90;;;7.80;99.90;;;;;;5076690;28;20462;-61
2022/03/07 10:06:14;;;;;;;5.50;4.10;;;8.30;99.90;;;;;;5077152;28;20461;-60
2022/03/07 10:08:53;;;;;;;4.73;3.80;;;8.60;99.90;;;;;;5076470;28;20472;-59
2022/03/07 10:11:23;;;;;;;4.13;3.83;;;8.80;99.90;;;;;;5057422;28;20536;-61
2022/03/07 10:13:55;;;;;;;5.63;4.47;;;8.90;99.90;;;;;;5076336;28;20461;-61
2022/03/07 10:16:23;;;;;;;4.00;3.60;;;8.90;99.90;;;;;;5076242;28;20507;-60
2022/03/07 10:19:08;;;;;;;4.47;4.07;;;9.20;99.90;;;;;;5077006;28;20547;-61
2022/03/07 10:21:48;;;;;;;4.10;3.70;;;8.90;99.90;;;;;;5061086;28;20583;-60
2022/03/07 10:24:18;;;;;;;3.90;3.60;;;8.60;99.90;;;;;;5075612;28;20878;-61
2022/03/07 10:26:48;;;;;;;6.30;4.53;;;8.90;99.90;;;;;;5075503;28;20887;-61
2022/03/07 10:29:15;;;;;;;3.70;3.40;;;9.20;99.90;;;;;;5076364;28;20464;-61
2022/03/07 10:31:47;;;;;;;6.07;4.10;;;9.20;99.90;;;;;;5076608;28;20887;-61
2022/03/07 10:34:26;;;;;;;;;;;;;;;;;;;;;
2022/03/07 10:36:56;;;;;;;4.20;3.80;;;9.30;99.90;;;;;;5075815;28;20482;-61
2022/03/07 10:39:30;;;;;;;3.63;3.33;;;9.70;99.90;;;;;;5075288;28;20493;-60
2022/03/07 10:41:58;;;;;;;4.67;4.20;;;9.40;99.90;;;;;;5076073;28;20457;-59
2022/03/07 10:44:34;;;;;;;4.20;3.80;;;9.50;99.90;;;;;;5074390;28;20848;-58
2022/03/07 10:47:10;;;;;;;3.93;3.53;;;9.90;99.90;;;;;;5076678;28;20465;-56
2022/03/07 10:49:47;;;;;;;3.67;3.37;;;10.00;99.90;;;;;;5068698;28;20485;-57
2022/03/07 10:52:14;;;;;;;4.57;4.17;;;10.00;99.90;;;;;;5073274;28;20551;-60
2022/03/07 10:54:54;;;;;;;4.90;4.43;;;9.90;99.90;;;;;;5072978;28;20518;-59
2022/03/07 10:57:25;;;;;;;5.33;4.80;;;10.00;99.90;;;;;;5061650;28;20476;-58
2022/03/07 11:00:03;;;;;;;4.37;4.00;;;10.10;99.90;;;;;;5063694;28;20462;-61
2022/03/07 11:02:41;;;;;;;4.10;3.80;;;10.00;99.90;;;;;;5076124;28;20508;-58
2022/03/07 11:05:09;;;;;;;4.80;4.07;;;10.20;99.90;;;;;;5065801;28;20485;-61
2022/03/07 11:07:40;;;;;;;4.17;3.77;;;10.00;99.90;;;;;;5063162;28;20559;-61
2022/03/07 11:10:11;;;;;;;4.40;4.00;;;10.10;99.90;;;;;;5075701;28;20878;-60
2022/03/07 11:12:41;;;;;;;4.07;3.77;;;10.00;99.90;;;;;;5074548;28;20457;-55
2022/03/07 11:15:18;;;;;;;4.67;4.03;;;10.60;99.90;;;;;;5076495;28;20518;-60
2022/03/07 11:17:50;;;;;;;4.07;3.77;;;10.90;99.90;;;;;;5075674;28;20581;-58
2022/03/07 11:20:24;;;;;;;3.90;3.60;;;10.70;99.90;;;;;;5071215;28;20493;-58
2022/03/07 11:22:56;;;;;;;5.70;4.13;;;11.10;99.90;;;;;;5074741;28;20461;-58
2022/03/07 11:25:25;;;;;;;4.00;3.70;;;10.90;99.90;;;;;;5074833;28;20485;-56
2022/03/07 11:27:52;;;;;;;4.17;3.87;;;11.00;99.90;;;;;;5077347;28;20503;-59
2022/03/07 11:30:24;;;;;;;4.83;4.40;;;11.10;99.90;;;;;;5077976;28;20477;-58
2022/03/07 11:32:57;;;;;;;4.90;4.07;;;11.10;99.90;;;;;;5078739;28;20501;-58
2022/03/07 11:35:33;;;;;;;3.80;3.33;;;11.40;99.90;;;;;;5078222;28;20461;-59
2022/03/07 11:38:23;;;;;;;3.97;2.70;;;11.20;99.90;;;;;;5078054;28;20836;-59
2022/03/07 11:41:09;;;;;;;3.40;3.20;;;11.40;99.90;;;;;;5079509;28;20506;-59
2022/03/07 11:43:56;;;;;;;3.60;3.30;;;10.80;99.90;;;;;;5077722;28;20469;-59
2022/03/07 11:46:34;;;;;;;4.27;3.87;;;10.70;99.90;;;;;;5078916;28;20469;-59
2022/03/07 11:49:04;;;;;;;5.90;3.50;;;10.90;99.90;;;;;;5078830;28;20506;-59
2022/03/07 11:51:35;;;;;;;4.10;3.80;;;11.20;99.90;;;;;;5079328;28;20514;-59
2022/03/07 11:54:07;;;;;;;4.30;3.30;;;11.20;99.90;;;;;;5078300;28;20464;-59
2022/03/07 11:56:39;;;;;;;3.73;3.43;;;11.30;99.90;;;;;;5062507;28;20454;-58
2022/03/07 11:59:09;;;;;;;4.23;3.80;;;11.20;99.90;;;;;;5077772;28;20516;-59
2022/03/07 12:01:58;;;;;;;3.70;3.40;;;11.30;99.90;;;;;;5072325;28;20488;-60
2022/03/07 12:04:25;;;;;;;3.60;3.30;;;11.90;99.90;;;;;;5075188;28;20907;-59
2022/03/07 12:06:55;;;;;;;2.90;2.70;;;12.30;99.90;;;;;;5077978;28;20899;-59
2022/03/07 12:09:32;;;;;;;3.53;3.20;;;11.60;99.90;;;;;;5076688;28;20462;-58
2022/03/07 12:12:05;;;;;;;4.57;3.30;;;11.30;99.90;;;;;;5076542;28;20461;-60
2022/03/07 12:14:35;;;;;;;3.83;3.43;;;11.30;99.90;;;;;;5077739;28;20565;-59
2022/03/07 12:17:10;;;;;;;3.03;2.83;;;11.50;99.90;;;;;;5078904;28;20472;-58
2022/03/07 12:19:40;;;;;;;3.00;2.80;;;11.60;99.90;;;;;;5078081;28;20941;-58
2022/03/07 12:22:14;;;;;;;3.30;3.10;;;11.40;99.90;;;;;;5079138;28;20492;-60
2022/03/07 12:24:45;;;;;;;3.73;3.43;;;11.60;99.90;;;;;;5078998;28;20460;-56
2022/03/07 12:27:16;;;;;;;3.70;3.40;;;11.50;99.90;;;;;;5078159;28;20891;-59
2022/03/07 12:29:44;;;;;;;5.37;3.63;;;11.30;99.90;;;;;;5078393;28;20464;-56
2022/03/07 12:32:13;;;;;;;3.57;3.27;;;11.30;99.90;;;;;;5079202;28;20515;-57
2022/03/07 12:34:41;;;;;;;4.10;3.70;;;11.80;99.90;;;;;;5078888;28;20461;-60
2022/03/07 12:37:13;;;;;;;3.37;3.07;;;12.00;99.90;;;;;;5077558;28;20465;-60
2022/03/07 12:39:48;;;;;;;4.00;3.30;;;11.80;99.90;;;;;;5077168;28;20793;-59
2022/03/07 12:42:21;;;;;;;3.53;3.23;;;12.20;99.90;;;;;;5078427;28;20469;-58
2022/03/07 12:44:52;;;;;;;3.90;3.33;;;11.90;99.90;;;;;;5078331;28;20755;-60
2022/03/07 12:47:26;;;;;;;3.57;3.27;;;11.90;99.90;;;;;;5076713;28;20473;-60
2022/03/07 12:49:53;;;;;;;3.50;3.20;;;12.40;99.90;;;;;;5077350;28;20465;-58
2022/03/07 12:52:27;;;;;;;3.90;3.60;;;12.30;99.90;;;;;;5078669;28;20461;-60
2022/03/07 12:54:55;;;;;;;4.13;3.53;;;12.00;99.90;;;;;;5078501;28;20461;-57
2022/03/07 12:57:27;;;;;;;4.23;3.83;;;12.00;99.90;;;;;;5077636;28;20468;-59
2022/03/07 13:00:00;;;;;;;5.07;3.40;;;12.50;99.90;;;;;;5078298;28;20922;-59
2022/03/07 13:02:34;;;;;;;3.70;3.40;;;12.70;99.90;;;;;;5078303;28;20473;-55
2022/03/07 13:05:01;;;;;;;3.40;3.20;;;12.40;99.90;;;;;;5078328;28;20905;-56
2022/03/07 13:07:29;;;;;;;3.60;3.40;;;11.80;99.90;;;;;;5078023;28;20476;-55
2022/03/07 13:10:05;;;;;;;3.20;3.00;;;12.00;99.90;;;;;;5077828;28;20742;-59
2022/03/07 13:12:48;;;;;;;3.80;3.50;;;12.10;99.90;;;;;;5077909;28;20874;-54
2022/03/07 13:15:22;;;;;;;3.70;3.40;;;12.30;99.90;;;;;;5078076;28;20881;-57
2022/03/07 13:18:02;;;;;;;3.57;3.37;;;12.40;99.90;;;;;;5077431;28;20510;-58
2022/03/07 13:20:38;;;;;;;3.13;2.93;;;12.40;99.90;;;;;;5074934;28;20488;-58
2022/03/07 13:23:09;;;;;;;5.20;3.20;;;12.20;99.90;;;;;;5076128;28;20469;-60
2022/03/07 13:25:38;;;;;;;3.90;3.60;;;12.30;99.90;;;;;;5076402;28;20461;-59